createdAt,value
2023-04-17T00:00:05.945Z,101013.76
2023-04-17T00:02:37.180Z,101014.27
2023-04-17T00:05:10.708Z,101012.05
2023-04-17T00:07:40.850Z,101017.17
2023-04-17T00:10:10.453Z,101013.93
2023-04-17T00:12:40.080Z,101017.52
2023-04-17T00:15:09.347Z,101019.22
2023-04-17T00:17:39.201Z,101021.95
2023-04-17T00:20:10.599Z,101016.83
2023-04-17T00:22:39.402Z,101021.78
2023-04-17T00:25:11.044Z,101023.49
2023-04-17T00:27:43.945Z,101014.79
2023-04-17T00:30:18.024Z,101021.61
2023-04-17T00:32:47.141Z,101017.17
2023-04-17T00:35:16.211Z,101019.56
2023-04-17T00:37:44.984Z,101018.55
2023-04-17T00:40:14.464Z,101013.94
2023-04-17T00:42:43.018Z,101014.79
2023-04-17T00:45:12.399Z,101012.05
2023-04-17T00:47:41.108Z,101011.88
2023-04-17T00:50:11.938Z,101019.91
2023-04-17T00:52:40.547Z,101018.20
2023-04-17T00:55:09.809Z,101017.17
2023-04-17T00:57:38.631Z,101012.91
2023-04-17T01:00:10.206Z,101010.52
2023-04-17T01:02:40.379Z,101010.34
2023-04-17T01:05:09.866Z,101012.91
2023-04-17T01:07:39.802Z,101016.66
2023-04-17T01:10:09.721Z,101018.38
2023-04-17T01:12:38.341Z,101009.67
2023-04-17T01:15:07.464Z,101008.64
2023-04-17T01:17:36.221Z,101011.20
2023-04-17T01:20:09.484Z,101017.18
2023-04-17T01:22:38.832Z,101018.89
2023-04-17T01:25:08.580Z,101014.79
2023-04-17T01:27:41.031Z,101008.81
2023-04-17T01:30:12.875Z,101018.20
2023-04-17T01:32:43.576Z,101006.94
2023-04-17T01:35:12.859Z,101005.91
2023-04-17T01:37:41.598Z,101002.67
2023-04-17T01:40:11.402Z,101008.48
2023-04-17T01:42:40.094Z,101005.23
2023-04-17T01:45:09.569Z,100997.72
2023-04-17T01:47:39.014Z,101002.33
2023-04-17T01:50:10.860Z,101004.20
2023-04-17T01:52:41.206Z,101005.92
2023-04-17T01:55:10.964Z,101011.21
2023-04-17T01:57:39.858Z,101007.63
2023-04-17T02:00:10.746Z,101015.48
2023-04-17T02:02:43.866Z,101008.64
2023-04-17T02:05:12.894Z,101011.38
2023-04-17T02:07:41.856Z,101007.28
2023-04-17T02:10:10.888Z,101004.72
2023-04-17T02:12:39.592Z,101007.63
2023-04-17T02:15:09.601Z,101017.70
2023-04-17T02:17:40.293Z,101019.58
2023-04-17T02:20:12.119Z,101015.48
2023-04-17T02:22:41.028Z,101016.84
2023-04-17T02:25:11.188Z,101012.91
2023-04-17T02:27:39.850Z,101014.80
2023-04-17T02:30:10.608Z,101026.58
2023-04-17T02:32:40.653Z,101016.84
2023-04-17T02:35:10.046Z,101020.09
2023-04-17T02:37:39.423Z,101021.11
2023-04-17T02:40:10.355Z,101016.33
2023-04-17T02:42:40.174Z,101026.23
2023-04-17T02:45:10.106Z,101022.65
2023-04-17T02:47:39.188Z,101029.14
2023-04-17T02:50:09.259Z,101021.97
2023-04-17T02:52:40.124Z,101028.80
2023-04-17T02:55:09.525Z,101029.13
2023-04-17T02:57:38.830Z,101039.72
2023-04-17T03:00:14.341Z,101027.26
2023-04-17T03:02:43.284Z,101023.50
2023-04-17T03:05:14.711Z,101031.36
2023-04-17T03:07:43.512Z,101034.94
2023-04-17T03:10:13.442Z,101038.19
2023-04-17T03:12:43.064Z,101035.80
2023-04-17T03:15:12.001Z,101040.58
2023-04-17T03:17:41.393Z,101049.45
2023-04-17T03:20:11.161Z,101051.16
2023-04-17T03:22:39.960Z,101052.53
2023-04-17T03:25:10.053Z,101049.28
2023-04-17T03:27:40.925Z,101049.80
2023-04-17T03:30:12.612Z,101056.45
2023-04-17T03:32:43.495Z,101057.83
2023-04-17T03:35:12.149Z,101056.97
2023-04-17T03:37:40.816Z,101060.56
2023-04-17T03:40:10.075Z,101067.05
2023-04-17T03:42:38.456Z,101059.70
2023-04-17T03:45:09.001Z,101064.66
2023-04-17T03:47:37.538Z,101067.73
2023-04-17T03:50:07.690Z,101070.63
2023-04-17T03:52:38.941Z,101074.05
2023-04-17T03:55:09.117Z,101073.19
2023-04-17T03:57:37.970Z,101071.48
2023-04-17T04:00:12.130Z,101068.58
2023-04-17T04:02:54.885Z,101079.52
2023-04-17T04:05:28.453Z,101074.39
2023-04-17T04:07:57.802Z,101077.97
2023-04-17T04:10:28.280Z,101080.37
2023-04-17T04:12:57.349Z,101076.95
2023-04-17T04:15:26.421Z,101075.25
2023-04-17T04:17:56.924Z,101080.55
2023-04-17T04:20:25.848Z,101081.73
2023-04-17T04:22:59.805Z,101083.95
2023-04-17T04:25:30.470Z,101084.30
2023-04-17T04:28:02.345Z,101088.23
2023-04-17T04:30:34.900Z,101094.04
2023-04-17T04:33:05.940Z,101092.33
2023-04-17T04:35:35.187Z,101091.82
2023-04-17T04:38:04.849Z,101095.75
2023-04-17T04:40:38.214Z,101097.97
2023-04-17T04:43:07.272Z,101103.95
2023-04-17T04:45:39.212Z,101093.53
2023-04-17T04:48:08.319Z,101101.56
2023-04-17T04:50:37.610Z,101096.44
2023-04-17T04:53:08.314Z,101105.66
2023-04-17T04:55:42.281Z,101105.32
2023-04-17T04:58:11.137Z,101101.56
2023-04-17T05:00:40.191Z,101096.95
2023-04-17T05:03:11.036Z,101099.17
2023-04-17T05:05:43.163Z,101101.39
2023-04-17T05:08:13.752Z,101097.29
2023-04-17T05:10:45.589Z,101101.56
2023-04-17T05:13:15.373Z,101099.17
2023-04-17T05:15:44.285Z,101109.08
2023-04-17T05:18:13.915Z,101108.39
2023-04-17T05:20:43.271Z,101106.52
2023-04-17T05:23:13.864Z,101100.88
2023-04-17T05:25:43.694Z,101104.98
2023-04-17T05:28:13.784Z,101111.30
2023-04-17T05:30:43.186Z,101119.16
2023-04-17T05:33:20.166Z,101127.53
2023-04-17T05:35:51.931Z,101125.66
2023-04-17T05:38:23.175Z,101128.94
2023-04-17T05:40:53.670Z,101129.96
2023-04-17T05:43:23.080Z,101131.67
2023-04-17T05:45:54.268Z,101133.55
2023-04-17T05:48:24.843Z,101132.18
2023-04-17T05:50:54.296Z,101127.56
2023-04-17T05:53:24.025Z,101128.07
2023-04-17T05:55:55.109Z,101127.55
2023-04-17T05:58:25.114Z,101133.35
2023-04-17T06:00:59.674Z,101128.89
2023-04-17T06:03:29.750Z,101130.08
2023-04-17T06:06:01.040Z,101132.83
2023-04-17T06:08:32.063Z,101138.46
2023-04-17T06:11:00.937Z,101141.02
2023-04-17T06:13:31.289Z,101144.59
2023-04-17T06:16:00.453Z,101146.13
2023-04-17T06:18:29.815Z,101140.48
2023-04-17T06:20:58.575Z,101145.96
2023-04-17T06:23:29.491Z,101146.65
2023-04-17T06:25:58.316Z,101146.98
2023-04-17T06:28:29.050Z,101148.86
2023-04-17T06:30:59.726Z,101145.59
2023-04-17T06:33:28.665Z,101156.53
2023-04-17T06:35:58.327Z,101157.55
2023-04-17T06:38:28.623Z,101157.88
2023-04-17T06:40:57.706Z,101149.98
2023-04-17T06:43:27.316Z,101151.38
2023-04-17T06:45:55.916Z,101152.39
2023-04-17T06:48:24.760Z,101154.27
2023-04-17T06:50:53.228Z,101155.98
2023-04-17T06:53:22.698Z,101159.22
2023-04-17T06:55:51.509Z,101155.09
2023-04-17T06:58:20.119Z,101153.53
2023-04-17T07:00:50.330Z,101159.02
2023-04-17T07:03:19.547Z,101162.59
2023-04-17T07:05:50.583Z,101166.02
2023-04-17T07:08:22.308Z,101167.72
2023-04-17T07:10:50.936Z,101159.84
2023-04-17T07:13:21.090Z,101159.86
2023-04-17T07:15:54.678Z,101161.58
2023-04-17T07:18:28.665Z,101165.36
2023-04-17T07:20:58.351Z,101161.64
2023-04-17T07:23:26.918Z,101165.39
2023-04-17T07:25:55.727Z,101161.12
2023-04-17T07:28:25.669Z,101169.01
2023-04-17T07:30:57.324Z,101166.63
2023-04-17T07:33:26.230Z,101168.16
2023-04-17T07:35:55.308Z,101171.57
2023-04-17T07:38:25.595Z,101170.02
2023-04-17T07:40:54.242Z,101172.07
2023-04-17T07:43:24.541Z,101177.03
2023-04-17T07:45:53.084Z,101170.87
2023-04-17T07:48:22.550Z,101179.42
2023-04-17T07:50:51.476Z,101170.35
2023-04-17T07:53:21.853Z,101166.24
2023-04-17T07:55:50.442Z,101169.69
2023-04-17T07:58:19.051Z,101171.22
2023-04-17T08:00:49.858Z,101170.17
2023-04-17T08:03:20.366Z,101174.77
2023-04-17T08:05:52.660Z,101168.94
2023-04-17T08:08:23.388Z,101169.79
2023-04-17T08:10:52.079Z,101160.38
2023-04-17T08:13:22.215Z,101165.34
2023-04-17T08:15:51.792Z,101153.37
2023-04-17T08:18:21.425Z,101152.84
2023-04-17T08:20:49.880Z,101157.97
2023-04-17T08:23:18.310Z,101158.47
2023-04-17T08:25:47.096Z,101146.27
2023-04-17T08:28:15.459Z,101147.05
2023-04-17T08:30:44.274Z,101143.88
2023-04-17T08:33:13.565Z,101144.31
2023-04-17T08:35:42.263Z,101141.05
2023-04-17T08:38:12.774Z,101143.61
2023-04-17T08:40:42.610Z,101138.09
2023-04-17T08:43:17.032Z,101146.08
2023-04-17T08:45:51.851Z,101151.80
2023-04-17T08:48:23.655Z,101134.78
2023-04-17T08:50:53.443Z,101131.67
2023-04-17T08:53:22.233Z,101137.36
2023-04-17T08:55:52.697Z,101135.13
2023-04-17T08:58:23.647Z,101130.21
2023-04-17T09:00:52.593Z,101133.27
2023-04-17T09:03:21.724Z,101134.39
2023-04-17T09:05:51.510Z,101126.33
2023-04-17T09:08:25.821Z,101139.36
2023-04-17T09:10:54.804Z,101120.56
2023-04-17T09:13:25.320Z,101140.23
2023-04-17T09:16:10.065Z,101137.67
2023-04-17T09:18:39.902Z,101134.70
2023-04-17T09:21:08.642Z,101133.58
2023-04-17T09:23:52.805Z,101137.77
2023-04-17T09:26:23.697Z,101139.53
2023-04-17T09:29:11.359Z,101130.59
2023-04-17T09:31:42.644Z,101129.53
2023-04-17T09:34:12.824Z,101129.69
2023-04-17T09:36:42.736Z,101131.49
2023-04-17T09:39:24.228Z,101140.16
2023-04-17T09:42:03.779Z,101135.47
2023-04-17T09:44:34.907Z,101133.66
2023-04-17T09:47:04.712Z,101129.73
2023-04-17T09:49:39.504Z,101132.15
2023-04-17T09:52:08.100Z,101134.42
2023-04-17T09:54:39.515Z,101130.31
2023-04-17T09:57:09.509Z,101131.03
2023-04-17T09:59:41.272Z,101129.69
2023-04-17T10:02:11.096Z,101121.87
2023-04-17T10:04:43.323Z,101121.58
2023-04-17T10:07:13.046Z,101123.99
2023-04-17T10:09:42.801Z,101127.26
2023-04-17T10:12:16.982Z,101127.59
2023-04-17T10:14:47.860Z,101131.56
2023-04-17T10:17:30.367Z,101126.48
2023-04-17T10:20:28.057Z,101125.14
2023-04-17T10:22:57.036Z,101116.06
2023-04-17T10:25:31.530Z,101122.44
2023-04-17T10:28:00.788Z,101125.03
2023-04-17T10:30:53.586Z,101119.55
2023-04-17T10:33:24.472Z,101115.25
2023-04-17T10:35:52.938Z,101114.31
2023-04-17T10:38:34.743Z,101112.02
2023-04-17T10:41:06.769Z,101112.45
2023-04-17T10:43:35.158Z,101120.98
2023-04-17T10:46:06.636Z,101124.53
2023-04-17T10:48:41.350Z,101109.59
2023-04-17T10:51:27.507Z,101115.06
2023-04-17T10:54:00.221Z,101111.27
2023-04-17T10:56:49.024Z,101111.55
2023-04-17T10:59:22.417Z,101112.03
2023-04-17T11:01:57.940Z,101101.52
2023-04-17T11:04:31.253Z,101104.55
2023-04-17T11:07:00.364Z,101102.94
2023-04-17T11:09:30.630Z,101101.33
2023-04-17T11:12:01.498Z,101097.95
2023-04-17T11:14:31.674Z,101094.44
2023-04-17T11:17:01.234Z,101091.06
2023-04-17T11:19:30.578Z,101083.27
2023-04-17T11:22:03.234Z,101083.67
2023-04-17T11:24:32.775Z,101073.61
2023-04-17T11:27:02.919Z,101069.36
2023-04-17T11:29:32.199Z,101067.53
2023-04-17T11:32:01.829Z,101057.00
2023-04-17T11:34:31.386Z,101064.53
2023-04-17T11:37:01.064Z,101056.73
2023-04-17T11:39:34.412Z,101049.60
2023-04-17T11:42:03.415Z,101052.88
2023-04-17T11:44:33.068Z,101043.59
2023-04-17T11:47:03.581Z,101037.09
2023-04-17T11:49:39.839Z,101039.21
2023-04-17T11:52:11.067Z,101039.27
2023-04-17T11:54:40.766Z,101034.54
2023-04-17T11:57:13.357Z,101027.25
2023-04-17T11:59:44.054Z,101028.44
2023-04-17T12:02:12.986Z,101018.80
2023-04-17T12:04:41.768Z,101021.80
2023-04-17T12:07:16.595Z,101027.55
2023-04-17T12:09:45.956Z,101013.38
2023-04-17T12:12:14.392Z,101009.05
2023-04-17T12:14:42.973Z,101012.45
2023-04-17T12:17:13.642Z,101021.16
2023-04-17T12:19:47.527Z,101017.80
2023-04-17T12:22:19.991Z,101011.36
2023-04-17T12:24:48.471Z,101018.31
2023-04-17T12:27:17.002Z,101024.59
2023-04-17T12:29:45.518Z,101022.69
2023-04-17T12:32:15.691Z,101019.84
2023-04-17T12:34:47.409Z,101024.83
2023-04-17T12:37:18.457Z,101008.42
2023-04-17T12:39:47.116Z,101010.97
2023-04-17T12:42:17.627Z,101026.03
2023-04-17T12:44:46.548Z,101014.16
2023-04-17T12:47:15.134Z,101011.09
2023-04-17T12:49:43.678Z,101002.30
2023-04-17T12:52:13.202Z,101003.47
2023-04-17T12:54:41.627Z,101004.44
2023-04-17T12:57:10.145Z,100999.89
2023-04-17T12:59:40.062Z,101002.03
2023-04-17T13:02:08.579Z,101007.66
2023-04-17T13:04:37.476Z,101003.77
2023-04-17T13:07:06.897Z,101001.65
2023-04-17T13:09:36.490Z,100998.36
2023-04-17T13:12:05.922Z,100997.31
2023-04-17T13:14:34.465Z,100996.57
2023-04-17T13:17:03.970Z,101001.14
2023-04-17T13:19:33.411Z,100988.65
2023-04-17T13:22:02.094Z,101002.24
2023-04-17T13:24:31.631Z,100998.69
2023-04-17T13:27:01.268Z,100991.48
2023-04-17T13:29:30.559Z,100992.53
2023-04-17T13:31:59.636Z,100988.61
2023-04-17T13:34:28.324Z,100990.84
2023-04-17T13:36:56.793Z,100999.63
2023-04-17T13:39:29.003Z,100993.77
2023-04-17T13:41:58.681Z,100996.73
2023-04-17T13:44:28.131Z,100992.06
2023-04-17T13:46:56.738Z,101002.39
2023-04-17T13:49:29.214Z,101000.48
2023-04-17T13:51:57.764Z,100997.05
2023-04-17T13:54:27.865Z,100993.98
2023-04-17T13:56:57.009Z,100990.89
2023-04-17T13:59:25.673Z,100987.17
2023-04-17T14:01:54.882Z,100998.30
2023-04-17T14:04:24.686Z,100994.05
2023-04-17T14:06:54.029Z,100995.31
2023-04-17T14:09:25.475Z,100988.83
2023-04-17T14:11:56.785Z,100992.12
2023-04-17T14:14:27.093Z,100992.53
2023-04-17T14:16:55.793Z,100993.80
2023-04-17T14:19:24.415Z,100991.24
2023-04-17T14:21:52.769Z,100991.24
2023-04-17T14:24:21.467Z,100987.31
2023-04-17T14:26:53.662Z,100985.30
2023-04-17T14:29:22.114Z,100991.12
2023-04-17T14:31:51.293Z,100990.81
2023-04-17T14:34:23.076Z,100998.55
2023-04-17T14:36:53.769Z,100993.23
2023-04-17T14:39:23.414Z,100978.29
2023-04-17T14:41:53.773Z,100974.04
2023-04-17T14:44:22.362Z,100977.97
2023-04-17T14:46:50.906Z,100975.22
2023-04-17T14:49:20.273Z,100975.09
2023-04-17T14:51:48.873Z,100978.06
2023-04-17T14:54:17.429Z,100970.20
2023-04-17T14:56:46.225Z,100970.73
2023-04-17T14:59:14.968Z,100967.66
2023-04-17T15:01:43.595Z,100967.02
2023-04-17T15:06:40.404Z,100964.55
2023-04-17T15:09:09.161Z,100960.62
2023-04-17T15:11:37.790Z,100954.80
2023-04-17T15:14:06.736Z,100956.17
2023-04-17T15:16:35.393Z,100955.53
2023-04-17T15:19:03.964Z,100952.45
2023-04-17T15:21:32.611Z,100952.13
2023-04-17T15:24:01.290Z,100951.48
2023-04-17T15:26:32.479Z,100950.63
2023-04-17T15:29:03.104Z,100949.67
2023-04-17T15:31:31.964Z,100950.20
2023-04-17T15:34:00.728Z,100954.00
2023-04-17T15:36:33.415Z,100959.52
2023-04-17T15:39:02.124Z,100956.75
2023-04-17T15:41:31.820Z,100952.47
2023-04-17T15:44:01.049Z,100954.58
2023-04-17T15:46:32.206Z,100963.37
2023-04-17T15:49:21.687Z,100964.10
2023-04-17T15:51:31.653Z,100960.70
2023-04-17T15:54:00.454Z,100960.05
2023-04-17T15:56:29.149Z,100964.59
2023-04-17T15:58:57.769Z,100953.98
2023-04-17T16:01:26.388Z,100964.88
2023-04-17T16:03:55.344Z,100961.80
2023-04-17T16:06:24.447Z,100960.42
2023-04-17T16:08:53.376Z,100964.23
2023-04-17T16:11:22.849Z,100969.62
2023-04-17T16:13:51.598Z,100967.27
2023-04-17T16:16:21.554Z,100967.15
2023-04-17T16:18:50.177Z,100968.40
2023-04-17T16:21:18.553Z,100964.88
2023-04-17T16:23:48.812Z,100966.98
2023-04-17T16:26:17.778Z,100970.66
2023-04-17T16:28:46.288Z,100974.55
2023-04-17T16:31:16.439Z,100970.14
2023-04-17T16:33:45.646Z,100980.81
2023-04-17T16:36:14.809Z,100977.94
2023-04-17T16:38:44.063Z,100969.44
2023-04-17T16:41:12.723Z,100975.02
2023-04-17T16:43:44.972Z,100974.53
2023-04-17T16:46:23.962Z,100969.83
2023-04-17T16:48:45.648Z,100972.66
2023-04-17T16:51:14.456Z,100975.27
2023-04-17T16:53:44.290Z,100975.02
2023-04-17T16:56:12.694Z,100978.89
2023-04-17T16:58:41.686Z,100979.94
2023-04-17T17:01:10.219Z,100976.61
2023-04-17T17:03:41.846Z,100973.80
2023-04-17T17:06:10.836Z,100973.86
2023-04-17T17:08:41.994Z,100979.75
2023-04-17T17:11:10.505Z,100982.56
2023-04-17T17:13:39.427Z,100979.23
2023-04-17T17:16:08.121Z,100974.12
2023-04-17T17:18:36.525Z,100982.43
2023-04-17T17:21:06.805Z,100979.19
2023-04-17T17:23:36.501Z,100978.20
2023-04-17T17:26:05.125Z,100976.37
2023-04-17T17:28:34.753Z,100980.55
2023-04-17T17:31:06.909Z,100975.64
2023-04-17T17:33:36.307Z,100982.37
2023-04-17T17:36:08.467Z,100983.09
2023-04-17T17:38:37.020Z,100979.36
2023-04-17T17:41:07.220Z,100977.72
2023-04-17T17:43:37.307Z,100979.47
2023-04-17T17:46:06.464Z,100981.89
2023-04-17T17:48:35.838Z,100983.45
2023-04-17T17:51:05.309Z,100980.05
2023-04-17T17:53:34.422Z,100992.61
2023-04-17T17:56:03.085Z,100987.50
2023-04-17T17:58:31.922Z,100984.42
2023-04-17T18:01:01.577Z,100982.39
2023-04-17T18:03:32.123Z,100982.25
2023-04-17T18:06:01.249Z,100971.98
2023-04-17T18:08:30.301Z,100979.89
2023-04-17T18:10:58.998Z,100979.42
2023-04-17T18:13:28.502Z,100979.62
2023-04-17T18:15:59.138Z,100979.12
2023-04-17T18:18:28.399Z,100979.83
2023-04-17T18:20:57.316Z,100976.42
2023-04-17T18:23:26.477Z,100973.34
2023-04-17T18:26:02.389Z,100975.40
2023-04-17T18:28:31.134Z,100974.73
2023-04-17T18:31:01.198Z,100970.29
2023-04-17T18:33:30.265Z,100969.11
2023-04-17T18:35:59.758Z,100967.41
2023-04-17T18:38:28.394Z,100969.83
2023-04-17T18:40:58.619Z,100963.81
2023-04-17T18:43:28.379Z,100967.27
2023-04-17T18:45:57.283Z,100964.52
2023-04-17T18:48:25.882Z,100970.02
2023-04-17T18:50:54.864Z,100963.34
2023-04-17T18:53:23.734Z,100967.65
2023-04-17T18:55:52.496Z,100960.13
2023-04-17T18:58:23.168Z,100961.17
2023-04-17T19:00:51.802Z,100956.20
2023-04-17T19:03:20.642Z,100953.78
2023-04-17T19:05:49.296Z,100948.82
2023-04-17T19:08:19.018Z,100946.08
2023-04-17T19:10:47.648Z,100948.30
2023-04-17T19:13:16.862Z,100945.74
2023-04-17T19:15:45.446Z,100943.84
2023-04-17T19:18:14.167Z,100939.92
2023-04-17T19:20:42.857Z,100944.89
2023-04-17T19:23:11.639Z,100941.48
2023-04-17T19:25:42.721Z,100941.16
2023-04-17T19:28:13.029Z,100933.45
2023-04-17T19:30:41.666Z,100936.19
2023-04-17T19:33:10.389Z,100938.61
2023-04-17T19:35:39.442Z,100925.27
2023-04-17T19:38:07.950Z,100932.64
2023-04-17T19:40:36.670Z,100923.56
2023-04-17T19:43:05.261Z,100925.78
2023-04-17T19:45:34.530Z,100934.34
2023-04-17T19:48:03.406Z,100931.47
2023-04-17T19:50:32.250Z,100925.31
2023-04-17T19:53:00.874Z,100923.61
2023-04-17T19:55:29.715Z,100923.61
2023-04-17T19:57:59.683Z,100921.39
2023-04-17T20:00:30.221Z,100927.92
2023-04-17T20:02:59.010Z,100922.95
2023-04-17T20:05:27.717Z,100921.25
2023-04-17T20:07:56.341Z,100921.25
2023-04-17T20:10:25.444Z,100913.54
2023-04-17T20:12:53.917Z,100912.36
2023-04-17T20:15:23.182Z,100909.28
2023-04-17T20:17:54.941Z,100906.55
2023-04-17T20:20:23.766Z,100911.18
2023-04-17T20:22:52.285Z,100907.25
2023-04-17T20:25:20.765Z,100905.88
2023-04-17T20:27:50.466Z,100898.69
2023-04-17T20:30:20.672Z,100894.25
2023-04-17T20:32:49.251Z,100893.39
2023-04-17T20:35:18.221Z,100890.32
2023-04-17T20:37:47.147Z,100887.77
2023-04-17T20:40:16.114Z,100888.81
2023-04-17T20:42:44.757Z,100878.88
2023-04-17T20:45:13.390Z,100893.97
2023-04-17T20:50:15.922Z,100885.92
2023-04-17T20:52:44.545Z,100883.38
2023-04-17T20:55:13.169Z,100884.41
2023-04-17T20:57:41.996Z,100883.56
2023-04-17T21:00:11.809Z,100875.20
2023-04-17T21:02:41.660Z,100881.72
2023-04-17T21:05:15.310Z,100878.84
2023-04-17T21:07:44.054Z,100869.62
2023-04-17T21:10:12.591Z,100872.88
2023-04-17T21:12:41.445Z,100872.22
2023-04-17T21:15:10.942Z,100877.89
2023-04-17T21:17:39.756Z,100876.20
2023-04-17T21:20:11.940Z,100869.16
2023-04-17T21:22:41.057Z,100865.77
2023-04-17T21:25:10.941Z,100867.84
2023-04-17T21:27:40.997Z,100867.52
2023-04-17T21:30:10.639Z,100856.07
2023-04-17T21:32:40.371Z,100857.30
2023-04-17T21:35:09.547Z,100853.19
2023-04-17T21:37:38.276Z,100863.49
2023-04-17T21:40:08.291Z,100855.98
2023-04-17T21:42:38.355Z,100858.05
2023-04-17T21:45:07.957Z,100850.87
2023-04-17T21:47:36.450Z,100852.76
2023-04-17T21:50:06.685Z,100858.95
2023-04-17T21:52:36.726Z,100853.14
2023-04-17T21:55:07.296Z,100851.63
2023-04-17T21:57:35.875Z,100847.70
2023-04-17T22:00:08.795Z,100844.44
2023-04-17T22:02:37.250Z,100851.95
2023-04-17T22:05:05.982Z,100844.58
2023-04-17T22:07:47.389Z,100848.50
2023-04-17T22:10:08.722Z,100845.25
2023-04-17T22:12:37.278Z,100843.02
2023-04-17T22:15:07.668Z,100844.72
2023-04-17T22:17:36.492Z,100841.13
2023-04-17T22:20:06.009Z,100837.21
2023-04-17T22:22:34.633Z,100835.51
2023-04-17T22:25:04.005Z,100836.03
2023-04-17T22:27:32.777Z,100838.95
2023-04-17T22:30:01.308Z,100827.66
2023-04-17T22:32:31.196Z,100829.55
2023-04-17T22:34:59.703Z,100830.07
2023-04-17T22:37:29.116Z,100836.78
2023-04-17T22:39:57.852Z,100829.13
2023-04-17T22:42:26.353Z,100829.50
2023-04-17T22:44:54.766Z,100833.09
2023-04-17T22:47:23.561Z,100829.17
2023-04-17T22:49:52.221Z,100825.58
2023-04-17T22:52:21.402Z,100825.25
2023-04-17T22:54:50.115Z,100815.18
2023-04-17T22:57:18.704Z,100818.62
2023-04-17T22:59:47.377Z,100815.22
2023-04-17T23:02:16.428Z,100813.19
2023-04-17T23:04:44.832Z,100812.20
2023-04-17T23:07:13.226Z,100806.38
2023-04-17T23:09:42.396Z,100807.42
2023-04-17T23:12:10.882Z,100809.83
2023-04-17T23:14:39.414Z,100809.50
2023-04-17T23:17:08.501Z,100806.42
2023-04-17T23:19:37.393Z,100803.36
2023-04-17T23:22:07.034Z,100807.66
2023-04-17T23:24:36.002Z,100808.17
2023-04-17T23:27:05.759Z,100813.65
2023-04-17T23:29:34.371Z,100802.55
2023-04-17T23:32:04.251Z,100806.14
2023-04-17T23:34:33.572Z,100803.08
2023-04-17T23:37:02.678Z,100805.19
2023-04-17T23:39:31.685Z,100811.38
2023-04-17T23:42:02.928Z,100804.56
2023-04-17T23:44:33.740Z,100801.34
2023-04-17T23:47:03.225Z,100800.84
2023-04-17T23:49:35.679Z,100803.42
2023-04-17T23:52:04.436Z,100801.88
2023-04-17T23:54:33.546Z,100800.50
2023-04-17T23:57:01.905Z,100802.05
2023-04-17T23:59:30.534Z,100797.09
